Terminal Aerodrome Forecast
Issued by NWS

Current Version | Previous Version | Graphics & Text | Print | Product List | Glossary On
Versions: 1 2 3 4 5 6 7 8 9 10 11 12 13 14 15 16 17 18 19 20 21 22 23 24 25 26 27 28 29 30 31 32 33 34 35 36 37 38 39 40 41
000
FTUS41 KRNK 210540
TAFLWB
TAF
KLWB 210540Z 2106/2206 00000KT 5SM BR SCT003 BKN250
     FM210900 00000KT 1/4SM FG OVC002
     FM211300 VRB03KT 5SM BR BKN005
     FM211430 27006KT P6SM SCT040 BKN250
     FM212200 VRB05G20KT 5SM TSRA OVC035CB
     FM220200 29004KT P6SM -SHRA VCTS BKN050CB OVC120=

USA.gov is the U.S. government's official web portal to all federal, state and local government web resources and services.